ΕΜΥ, Εθνική Μετεωρολογική Υπηρεσία - Δελτία Καιρού, Προγνώσεις

ΑΕΡΟΝΑΥΤΙΛΙΑ

GREEK AIRPORTS CODES

LGEL 221250Z VRB03KT 9999 FEW030 SCT070 22/10 Q1014 RMK BKN180=

EUROPEAN AIRPORTS CODES

LFPO 221230Z 04013KT 9999 FEW046TCU BKN058 09/M01 Q1024TEMPO 4000 -SHRA SCT030TCU=